Time;durP1;ratioP1;P1;durP2;ratioP2;P2;SDS_P1;SDS_P2;PMS_P1;PMS_P2;Temp;Humidity;BMP_temperature;BMP_pressure;BME280_temperature;BME280_humidity;BME280_pressure;Samples;Min_cycle;Max_cycle;Signal;HPM_P1;HPM_P2
2021/04/08 05:51:24;;;;;;;10.77;5.90;;;;;;;;;;5306517;23;20049;-63
2021/04/08 05:53:51;;;;;;;12.05;6.68;;;;;;;;;;4985591;28;20026;-67
2021/04/08 05:56:17;;;;;;;11.15;6.18;;;;;;;;;;4983746;28;20069;-69
2021/04/08 05:58:43;;;;;;;14.00;5.93;;;;;;;;;;4991091;28;20029;-65
2021/04/08 06:01:09;;;;;;;10.45;6.47;;;;;;;;;;5004543;28;20045;-69
2021/04/08 06:03:35;;;;;;;13.02;6.85;;;;;;;;;;4990205;28;20015;-66
2021/04/08 06:06:01;;;;;;;19.17;13.57;;;;;;;;;;4991500;28;20074;-65
2021/04/08 06:08:27;;;;;;;14.23;9.05;;;;;;;;;;4991516;28;20029;-64
2021/04/08 06:10:54;;;;;;;15.50;7.53;;;;;;;;;;4992744;28;20036;-67
2021/04/08 06:13:20;;;;;;;10.80;7.03;;;;;;;;;;4981182;28;20470;-67
2021/04/08 06:15:46;;;;;;;14.05;7.40;;;;;;;;;;4985847;28;20038;-65
2021/04/08 06:18:12;;;;;;;11.32;6.55;;;;;;;;;;4987149;28;20026;-60
2021/04/08 06:20:38;;;;;;;15.85;7.10;;;;;;;;;;4988682;28;20064;-66
2021/04/08 06:23:04;;;;;;;12.55;7.10;;;;;;;;;;4983680;28;20432;-66
2021/04/08 06:25:31;;;;;;;11.38;6.70;;;;;;;;;;4984518;28;20049;-66
2021/04/08 06:27:57;;;;;;;11.13;6.97;;;;;;;;;;4983019;28;20117;-66
2021/04/08 06:30:23;;;;;;;11.90;7.13;;;;;;;;;;4969648;28;20045;-66
2021/04/08 06:32:52;;;;;;;12.60;7.32;;;;;;;;;;4986609;28;20030;-68
2021/04/08 06:35:18;;;;;;;12.63;7.97;;;;;;;;;;4986972;28;20086;-59
2021/04/08 06:37:45;;;;;;;13.45;7.78;;;;;;;;;;4986089;28;20026;-63
2021/04/08 06:40:11;;;;;;;17.15;8.82;;;;;;;;;;4986346;28;20030;-65
2021/04/08 06:42:38;;;;;;;12.75;7.75;;;;;;;;;;4984974;28;20030;-65
2021/04/08 06:45:05;;;;;;;11.77;6.75;;;;;;;;;;4986638;28;20398;-70
2021/04/08 06:47:34;;;;;;;12.35;7.20;;;;;;;;;;4986439;28;20122;-58
2021/04/08 06:50:04;;;;;;;11.65;6.30;;;;;;;;;;4999390;28;20070;-66
2021/04/08 06:52:31;;;;;;;13.43;6.53;;;;;;;;;;4982864;28;20054;-63
2021/04/08 06:54:58;;;;;;;12.88;7.00;;;;;;;;;;4994004;28;20374;-65
2021/04/08 06:57:24;;;;;;;11.50;6.50;;;;;;;;;;4968918;28;20030;-66
2021/04/08 06:59:51;;;;;;;14.02;7.30;;;;;;;;;;4970086;28;20018;-60
2021/04/08 07:02:18;;;;;;;11.93;6.50;;;;;;;;;;4969066;28;20076;-65
2021/04/08 07:04:45;;;;;;;14.88;6.53;;;;;;;;;;4971876;28;20023;-66
2021/04/08 07:07:11;;;;;;;10.98;6.15;;;;;;;;;;4970884;28;20128;-64
2021/04/08 07:09:37;;;;;;;15.73;7.00;;;;;;;;;;4989329;28;20077;-65
2021/04/08 07:12:04;;;;;;;12.55;7.95;;;;;;;;;;4971479;28;20023;-58
2021/04/08 07:14:30;;;;;;;15.40;7.55;;;;;;;;;;4970851;28;20030;-64
2021/04/08 07:16:57;;;;;;;13.52;7.72;;;;;;;;;;4971038;28;20040;-65
2021/04/08 07:19:23;;;;;;;20.40;6.55;;;;;;;;;;4971807;28;20478;-67
2021/04/08 07:21:49;;;;;;;13.23;7.07;;;;;;;;;;4989729;28;20026;-61
2021/04/08 07:24:15;;;;;;;16.27;7.28;;;;;;;;;;4988022;28;20394;-64
2021/04/08 07:26:53;;;;;;;12.77;7.25;;;;;;;;;;4987065;28;20117;-67
2021/04/08 07:29:20;;;;;;;14.45;7.10;;;;;;;;;;4988503;28;20062;-69
2021/04/08 07:31:49;;;;;;;11.70;6.30;;;;;;;;;;4987806;28;20037;-59
2021/04/08 07:34:34;;;;;;;13.27;7.45;;;;;;;;;;4970009;28;20039;-67
2021/04/08 07:37:00;;;;;;;12.52;6.72;;;;;;;;;;4989172;28;20031;-66
2021/04/08 07:39:34;;;;;;;12.52;6.93;;;;;;;;;;4970956;28;20032;-68
2021/04/08 07:42:02;;;;;;;11.65;6.72;;;;;;;;;;4977374;28;20030;-71
2021/04/08 07:44:28;;;;;;;13.25;7.10;;;;;;;;;;4990988;28;20117;-69
2021/04/08 07:46:55;;;;;;;10.45;6.60;;;;;;;;;;4971797;28;20030;-72
2021/04/08 07:49:27;;;;;;;12.48;6.78;;;;;;;;;;4968878;28;20046;-72
2021/04/08 07:51:54;;;;;;;11.02;6.28;;;;;;;;;;4989080;28;20054;-64
2021/04/08 07:54:21;;;;;;;11.05;6.38;;;;;;;;;;4971222;28;20375;-68
2021/04/08 07:56:47;;;;;;;12.98;7.70;;;;;;;;;;4971570;28;20382;-58
2021/04/08 07:59:16;;;;;;;12.23;6.25;;;;;;;;;;4987847;28;20474;-69
2021/04/08 08:01:45;;;;;;;12.38;6.53;;;;;;;;;;4968017;28;20121;-65
2021/04/08 08:04:27;;;;;;;11.57;7.20;;;;;;;;;;4969706;28;20022;-69
2021/04/08 08:06:53;;;;;;;15.57;7.15;;;;;;;;;;4987101;28;20011;-69
2021/04/08 08:09:23;;;;;;;13.48;7.97;;;;;;;;;;4970855;28;20061;-68
2021/04/08 08:11:50;;;;;;;11.63;7.40;;;;;;;;;;4969437;28;20022;-69
2021/04/08 08:14:17;;;;;;;10.23;6.65;;;;;;;;;;4988553;28;20474;-66
2021/04/08 08:17:03;;;;;;;11.80;7.18;;;;;;;;;;4970512;28;20470;-69
2021/04/08 08:19:30;;;;;;;13.52;7.00;;;;;;;;;;4873953;29;20096;-76
2021/04/08 08:21:56;;;;;;;13.02;7.28;;;;;;;;;;4874128;29;20043;-64
2021/04/08 08:24:25;;;;;;;15.15;7.30;;;;;;;;;;4889665;29;20412;-69
2021/04/08 08:26:54;;;;;;;13.60;6.95;;;;;;;;;;4876223;29;20405;-69
2021/04/08 08:29:25;;;;;;;13.02;6.85;;;;;;;;;;4879140;29;20060;-63
2021/04/08 08:31:56;;;;;;;13.13;6.30;;;;;;;;;;4893224;29;20044;-68
2021/04/08 08:34:26;;;;;;;12.10;6.22;;;;;;;;;;4892975;29;20021;-57
2021/04/08 08:36:57;;;;;;;12.73;6.35;;;;;;;;;;4894065;29;20043;-69
2021/04/08 08:39:28;;;;;;;14.07;7.07;;;;;;;;;;4894551;29;20036;-70
2021/04/08 08:41:54;;;;;;;10.00;5.80;;;;;;;;;;4894369;29;20119;-71
2021/04/08 08:44:21;;;;;;;13.88;6.47;;;;;;;;;;4878465;29;20040;-70
2021/04/08 08:46:50;;;;;;;15.23;7.45;;;;;;;;;;4878408;29;20603;-61
2021/04/08 08:49:20;;;;;;;9.07;4.72;;;;;;;;;;4893714;29;20052;-60
2021/04/08 08:51:47;;;;;;;9.27;4.78;;;;;;;;;;4893745;29;20128;-71
2021/04/08 08:54:13;;;;;;;9.73;5.50;;;;;;;;;;4878270;29;20059;-70
2021/04/08 08:56:39;;;;;;;11.65;7.03;;;;;;;;;;4944989;28;20042;-69
2021/04/08 08:59:06;;;;;;;10.20;4.88;;;;;;;;;;4991385;28;20018;-69
2021/04/08 09:01:35;;;;;;;7.75;4.65;;;;;;;;;;4993455;28;20034;-59
2021/04/08 09:04:02;;;;;;;9.88;4.97;;;;;;;;;;4993819;28;20022;-58
2021/04/08 09:06:28;;;;;;;6.95;4.10;;;;;;;;;;4993476;28;20038;-60
2021/04/08 09:08:58;;;;;;;5.68;3.65;;;;;;;;;;4993234;28;20054;-58
2021/04/08 09:11:28;;;;;;;9.73;3.95;;;;;;;;;;4975562;28;20037;-62
2021/04/08 09:13:55;;;;;;;6.78;3.42;;;;;;;;;;4992883;28;20022;-60
2021/04/08 09:16:21;;;;;;;6.40;3.70;;;;;;;;;;4991013;28;20026;-69
2021/04/08 09:18:59;;;;;;;12.43;3.55;;;;;;;;;;4966194;28;20034;-60
2021/04/08 09:21:26;;;;;;;6.18;3.60;;;;;;;;;;4974796;28;20167;-64
2021/04/08 09:24:11;;;;;;;7.72;4.30;;;;;;;;;;4956319;28;20391;-58
2021/04/08 09:26:38;;;;;;;10.95;5.10;;;;;;;;;;4973622;28;20039;-70
2021/04/08 09:29:05;;;;;;;6.97;3.60;;;;;;;;;;4974198;28;20073;-61
2021/04/08 09:31:31;;;;;;;6.95;4.32;;;;;;;;;;4973827;28;20069;-70
2021/04/08 09:34:04;;;;;;;4.53;2.92;;;;;;;;;;4974430;28;20038;-64
2021/04/08 09:36:37;;;;;;;13.32;7.95;;;;;;;;;;4956668;28;20082;-70
2021/04/08 09:39:03;;;;;;;21.52;11.88;;;;;;;;;;4973765;28;20389;-60
2021/04/08 09:41:47;;;;;;;7.47;4.55;;;;;;;;;;4956127;28;20035;-66
2021/04/08 09:44:14;;;;;;;6.50;4.65;;;;;;;;;;4967030;28;20042;-60
2021/04/08 09:46:41;;;;;;;10.75;5.30;;;;;;;;;;4991117;28;20034;-59
2021/04/08 09:49:08;;;;;;;8.10;3.83;;;;;;;;;;4990442;28;20034;-70
2021/04/08 09:51:44;;;;;;;5.20;3.25;;;;;;;;;;4990034;28;20114;-62
2021/04/08 09:54:15;;;;;;;7.40;3.75;;;;;;;;;;4972515;28;20038;-67
2021/04/08 09:56:49;;;;;;;4.53;2.97;;;;;;;;;;4989084;28;20088;-63
2021/04/08 09:59:17;;;;;;;7.95;3.35;;;;;;;;;;4971509;28;20037;-64
2021/04/08 10:01:44;;;;;;;6.35;3.28;;;;;;;;;;4990802;28;20474;-60
2021/04/08 10:04:16;;;;;;;6.80;3.17;;;;;;;;;;4974762;28;20037;-69
2021/04/08 10:06:43;;;;;;;4.05;3.15;;;;;;;;;;4990033;28;20030;-68
2021/04/08 10:11:40;;;;;;;5.10;3.10;;;;;;;;;;4987143;28;20110;-61
2021/04/08 10:14:20;;;;;;;5.38;2.80;;;;;;;;;;4986595;28;20118;-65
2021/04/08 10:16:59;;;;;;;5.38;3.13;;;;;;;;;;4990602;28;20120;-68
2021/04/08 10:19:29;;;;;;;6.32;2.83;;;;;;;;;;4982257;28;20361;-63
2021/04/08 10:21:55;;;;;;;5.75;2.67;;;;;;;;;;4979761;28;20026;-65
2021/04/08 10:24:21;;;;;;;6.07;3.13;;;;;;;;;;4979615;28;20037;-68
2021/04/08 10:26:47;;;;;;;7.70;4.90;;;;;;;;;;4982371;28;20034;-68
2021/04/08 10:29:13;;;;;;;7.57;3.92;;;;;;;;;;4983369;28;20030;-64
2021/04/08 10:31:44;;;;;;;6.25;3.03;;;;;;;;;;4975055;28;20030;-67
2021/04/08 10:34:11;;;;;;;7.75;4.35;;;;;;;;;;4980305;28;20486;-68
2021/04/08 10:36:38;;;;;;;6.13;3.25;;;;;;;;;;4984510;28;20160;-68
2021/04/08 10:39:04;;;;;;;3.35;2.35;;;;;;;;;;4990884;28;20022;-61
2021/04/08 10:41:30;;;;;;;5.03;2.58;;;;;;;;;;4989268;28;20122;-65
2021/04/08 10:43:57;;;;;;;4.15;3.08;;;;;;;;;;4990283;28;20450;-58
2021/04/08 10:46:23;;;;;;;7.32;3.38;;;;;;;;;;4992495;28;20412;-66
2021/04/08 10:48:49;;;;;;;7.65;4.55;;;;;;;;;;4990684;28;20074;-64
2021/04/08 10:51:16;;;;;;;6.18;3.80;;;;;;;;;;4990230;28;20551;-65
2021/04/08 10:53:46;;;;;;;6.57;4.03;;;;;;;;;;4972230;28;20038;-66
2021/04/08 10:56:12;;;;;;;11.30;4.05;;;;;;;;;;4988919;28;20033;-70
2021/04/08 10:58:38;;;;;;;6.80;3.03;;;;;;;;;;4971469;28;20434;-67
2021/04/08 11:01:04;;;;;;;8.30;3.78;;;;;;;;;;4984815;28;20034;-66
2021/04/08 11:03:30;;;;;;;10.10;2.70;;;;;;;;;;4986807;28;20034;-63
2021/04/08 11:05:56;;;;;;;5.63;2.88;;;;;;;;;;4973064;28;20058;-65
2021/04/08 11:08:22;;;;;;;10.48;5.43;;;;;;;;;;4990845;28;20102;-66
2021/04/08 11:10:48;;;;;;;10.05;5.25;;;;;;;;;;4990438;28;20050;-58
2021/04/08 11:13:14;;;;;;;5.45;2.72;;;;;;;;;;4989305;28;20081;-64
2021/04/08 11:15:42;;;;;;;4.55;2.90;;;;;;;;;;4988709;28;20654;-61
2021/04/08 11:18:16;;;;;;;14.82;6.35;;;;;;;;;;4990402;28;20053;-67
2021/04/08 11:20:44;;;;;;;7.43;4.28;;;;;;;;;;4989943;28;20392;-58
2021/04/08 11:23:11;;;;;;;6.22;2.67;;;;;;;;;;4989196;28;20073;-58
2021/04/08 11:25:37;;;;;;;6.40;3.20;;;;;;;;;;4971573;28;20134;-66
2021/04/08 11:28:06;;;;;;;6.72;3.40;;;;;;;;;;4978470;28;20520;-59
2021/04/08 11:30:38;;;;;;;6.95;4.10;;;;;;;;;;4985303;28;20459;-59
2021/04/08 11:33:08;;;;;;;6.43;3.65;;;;;;;;;;4986534;28;20022;-66
2021/04/08 11:35:38;;;;;;;6.75;3.25;;;;;;;;;;4968278;28;20026;-65
2021/04/08 11:38:05;;;;;;;6.18;2.75;;;;;;;;;;4982879;28;20026;-65
2021/04/08 11:40:32;;;;;;;5.47;2.88;;;;;;;;;;4987693;28;20432;-59
2021/04/08 11:42:58;;;;;;;6.05;3.08;;;;;;;;;;4973835;28;20026;-61
2021/04/08 11:45:24;;;;;;;6.72;4.10;;;;;;;;;;4960126;28;20038;-63
2021/04/08 11:47:58;;;;;;;5.85;3.42;;;;;;;;;;4980420;28;20026;-59
2021/04/08 11:50:48;;;;;;;6.88;3.58;;;;;;;;;;4987738;28;20381;-59
2021/04/08 11:53:18;;;;;;;7.22;3.53;;;;;;;;;;4990437;28;20041;-67
2021/04/08 11:55:51;;;;;;;7.53;4.43;;;;;;;;;;4988619;28;20464;-68
2021/04/08 11:58:43;;;;;;;5.57;3.70;;;;;;;;;;4990776;28;20026;-63
2021/04/08 12:01:13;;;;;;;6.10;3.58;;;;;;;;;;4985048;28;20038;-59
2021/04/08 12:03:40;;;;;;;5.72;3.00;;;;;;;;;;4995343;28;20033;-58
2021/04/08 12:06:10;;;;;;;7.85;3.88;;;;;;;;;;4990695;28;20018;-60
2021/04/08 12:08:40;;;;;;;8.38;3.10;;;;;;;;;;4985091;28;20030;-58
2021/04/08 12:11:06;;;;;;;7.38;3.10;;;;;;;;;;4984290;28;20074;-59
2021/04/08 12:13:32;;;;;;;11.95;4.20;;;;;;;;;;4965267;28;20026;-58
2021/04/08 12:15:58;;;;;;;6.85;3.67;;;;;;;;;;4984272;28;20029;-58
2021/04/08 12:18:26;;;;;;;5.93;3.50;;;;;;;;;;4984239;28;20027;-60
2021/04/08 12:20:53;;;;;;;3.90;2.30;;;;;;;;;;4965260;28;20019;-60
2021/04/08 12:23:20;;;;;;;5.28;2.83;;;;;;;;;;4984194;28;20109;-61
2021/04/08 12:25:48;;;;;;;5.38;2.85;;;;;;;;;;4984401;28;20030;-64
2021/04/08 12:28:14;;;;;;;5.15;2.53;;;;;;;;;;4979957;28;20711;-67
2021/04/08 12:30:56;;;;;;;4.82;2.72;;;;;;;;;;4983380;28;20054;-65
2021/04/08 12:33:22;;;;;;;5.57;2.90;;;;;;;;;;4957044;28;20141;-58
2021/04/08 12:35:48;;;;;;;9.35;3.17;;;;;;;;;;4974191;28;20261;-59
2021/04/08 12:41:10;;;;;;;9.50;4.93;;;;;;;;;;4897051;29;20048;-64
2021/04/08 12:43:41;;;;;;;8.77;5.20;;;;;;;;;;4904638;29;20080;-59
2021/04/08 12:46:07;;;;;;;6.55;3.42;;;;;;;;;;4912584;29;20073;-66
2021/04/08 12:48:34;;;;;;;8.02;3.25;;;;;;;;;;4915414;29;20028;-62
2021/04/08 12:51:00;;;;;;;8.55;4.53;;;;;;;;;;4915323;29;20143;-59
2021/04/08 12:53:26;;;;;;;10.40;4.70;;;;;;;;;;4914486;29;20103;-59
2021/04/08 12:55:53;;;;;;;5.35;3.10;;;;;;;;;;4915468;29;20036;-67
2021/04/08 12:58:19;;;;;;;8.60;3.17;;;;;;;;;;4914876;29;20518;-65
2021/04/08 13:00:45;;;;;;;8.43;3.30;;;;;;;;;;4914919;29;20028;-68
2021/04/08 13:03:12;;;;;;;6.75;3.47;;;;;;;;;;4915087;29;20035;-68
2021/04/08 13:05:38;;;;;;;7.72;3.40;;;;;;;;;;4914546;29;20064;-67
2021/04/08 13:08:04;;;;;;;6.70;3.40;;;;;;;;;;4914732;29;20488;-59
2021/04/08 13:10:31;;;;;;;5.72;2.88;;;;;;;;;;4914266;29;20060;-64
2021/04/08 13:12:57;;;;;;;4.20;2.50;;;;;;;;;;4914569;29;20036;-61
2021/04/08 13:15:23;;;;;;;4.72;2.53;;;;;;;;;;4915134;29;20154;-58
2021/04/08 13:17:52;;;;;;;4.55;2.55;;;;;;;;;;4949322;28;20076;-66
2021/04/08 13:20:22;;;;;;;6.32;3.03;;;;;;;;;;4992825;28;20051;-68
2021/04/08 13:22:48;;;;;;;5.30;2.78;;;;;;;;;;4993753;28;20035;-65
2021/04/08 13:25:15;;;;;;;4.80;2.60;;;;;;;;;;4993316;28;20404;-67
2021/04/08 13:27:42;;;;;;;3.42;1.95;;;;;;;;;;4993389;28;20026;-69
2021/04/08 13:30:09;;;;;;;3.88;2.10;;;;;;;;;;4993172;28;20407;-71
2021/04/08 13:32:35;;;;;;;6.35;3.13;;;;;;;;;;4993797;28;20034;-65
2021/04/08 13:35:01;;;;;;;11.45;4.20;;;;;;;;;;4993164;28;20034;-67
2021/04/08 13:37:28;;;;;;;11.68;7.22;;;;;;;;;;4993395;28;20085;-70
2021/04/08 13:39:54;;;;;;;5.97;2.50;;;;;;;;;;4993271;28;20034;-68
2021/04/08 13:42:20;;;;;;;5.70;2.80;;;;;;;;;;4992884;28;20084;-67
2021/04/08 13:44:46;;;;;;;5.45;2.80;;;;;;;;;;4993291;28;20023;-68
2021/04/08 13:47:12;;;;;;;7.63;2.50;;;;;;;;;;4993114;28;20575;-67
2021/04/08 13:49:38;;;;;;;5.55;2.40;;;;;;;;;;4993607;28;20053;-63
2021/04/08 13:52:04;;;;;;;5.22;2.35;;;;;;;;;;4992900;28;20023;-69
2021/04/08 13:54:31;;;;;;;4.55;2.40;;;;;;;;;;4992676;28;20076;-70
2021/04/08 13:56:57;;;;;;;4.80;2.53;;;;;;;;;;4992688;28;20053;-69
2021/04/08 13:59:23;;;;;;;4.47;2.58;;;;;;;;;;4992858;28;20121;-59
2021/04/08 14:01:49;;;;;;;8.38;2.72;;;;;;;;;;4993036;28;20092;-65
2021/04/08 14:04:15;;;;;;;7.45;3.10;;;;;;;;;;4993346;28;20474;-64
2021/04/08 14:06:41;;;;;;;7.93;3.15;;;;;;;;;;4993018;28;20026;-59
2021/04/08 14:09:08;;;;;;;6.97;3.05;;;;;;;;;;4992624;28;20049;-69
2021/04/08 14:11:35;;;;;;;6.53;2.95;;;;;;;;;;4992480;28;20050;-60
2021/04/08 14:14:01;;;;;;;7.72;3.05;;;;;;;;;;4992832;28;20073;-67
2021/04/08 14:16:27;;;;;;;10.68;6.70;;;;;;;;;;4992940;28;20046;-69
2021/04/08 14:18:53;;;;;;;5.03;3.05;;;;;;;;;;4992741;28;20046;-69
2021/04/08 14:21:19;;;;;;;4.60;2.67;;;;;;;;;;4992682;28;20076;-65
2021/04/08 14:23:46;;;;;;;11.07;5.18;;;;;;;;;;4992238;28;20041;-68
2021/04/08 14:26:12;;;;;;;6.50;3.42;;;;;;;;;;4992184;28;20027;-67
2021/04/08 14:28:38;;;;;;;8.75;4.35;;;;;;;;;;4991751;28;20474;-66
2021/04/08 14:31:04;;;;;;;5.05;2.50;;;;;;;;;;5000270;28;20049;-66
2021/04/08 14:33:30;;;;;;;5.57;2.38;;;;;;;;;;4998665;28;20054;-69
2021/04/08 14:35:56;;;;;;;3.85;2.35;;;;;;;;;;4992360;28;20050;-68
2021/04/08 14:38:22;;;;;;;6.25;3.10;;;;;;;;;;4992365;28;20037;-67
2021/04/08 14:40:48;;;;;;;4.75;2.60;;;;;;;;;;4992119;28;20041;-69
2021/04/08 14:43:14;;;;;;;9.05;4.47;;;;;;;;;;4992226;28;20057;-68
2021/04/08 14:45:40;;;;;;;10.20;5.40;;;;;;;;;;4992404;28;20054;-60
2021/04/08 14:48:07;;;;;;;13.85;6.50;;;;;;;;;;4992209;28;20030;-68
2021/04/08 14:50:34;;;;;;;9.15;4.93;;;;;;;;;;5003956;28;20082;-67
2021/04/08 14:53:00;;;;;;;10.45;4.80;;;;;;;;;;5011594;28;20022;-60
2021/04/08 14:55:26;;;;;;;12.68;5.28;;;;;;;;;;5011456;28;20029;-70
2021/04/08 14:57:52;;;;;;;6.63;3.20;;;;;;;;;;5011668;28;20026;-67
2021/04/08 15:00:19;;;;;;;15.90;9.35;;;;;;;;;;5011202;28;20038;-64
2021/04/08 15:02:46;;;;;;;12.70;6.60;;;;;;;;;;5011565;28;20557;-60
2021/04/08 15:05:13;;;;;;;7.75;3.50;;;;;;;;;;5011605;28;20040;-61
2021/04/08 15:07:39;;;;;;;6.57;3.58;;;;;;;;;;5011372;28;20414;-68
2021/04/08 15:10:06;;;;;;;10.00;4.63;;;;;;;;;;5011080;28;20123;-62
2021/04/08 15:12:32;;;;;;;9.40;4.72;;;;;;;;;;5011426;28;20025;-65
2021/04/08 15:14:59;;;;;;;5.65;3.50;;;;;;;;;;5011422;28;20033;-63
2021/04/08 15:17:25;;;;;;;13.13;6.05;;;;;;;;;;5011210;28;20393;-62
2021/04/08 15:19:51;;;;;;;12.48;5.47;;;;;;;;;;5011044;28;20029;-61
2021/04/08 15:22:17;;;;;;;11.32;5.30;;;;;;;;;;5010977;28;20026;-61
2021/04/08 15:24:43;;;;;;;13.23;6.43;;;;;;;;;;5010689;28;20049;-61
2021/04/08 15:27:09;;;;;;;13.02;5.60;;;;;;;;;;5010996;28;20488;-68
2021/04/08 15:29:35;;;;;;;11.93;5.57;;;;;;;;;;5010897;28;20425;-71
2021/04/08 15:32:01;;;;;;;12.18;5.20;;;;;;;;;;5011294;28;20068;-69
2021/04/08 15:34:28;;;;;;;6.53;3.28;;;;;;;;;;5011036;28;20026;-67
2021/04/08 15:36:54;;;;;;;5.75;2.67;;;;;;;;;;5010987;28;20037;-69
2021/04/08 15:39:20;;;;;;;6.57;2.80;;;;;;;;;;5010779;28;20033;-67
2021/04/08 15:41:46;;;;;;;4.25;2.33;;;;;;;;;;5010604;28;20048;-63
2021/04/08 15:44:12;;;;;;;3.95;2.25;;;;;;;;;;5010974;28;20022;-62
2021/04/08 15:46:38;;;;;;;4.53;2.35;;;;;;;;;;5010548;28;20030;-62
2021/04/08 15:49:04;;;;;;;4.43;2.50;;;;;;;;;;5010507;28;20026;-66
2021/04/08 15:51:30;;;;;;;4.43;2.33;;;;;;;;;;5010514;28;20033;-69
2021/04/08 15:53:56;;;;;;;5.90;2.53;;;;;;;;;;5010750;28;20381;-65
2021/04/08 15:56:22;;;;;;;4.20;2.22;;;;;;;;;;5010525;28;20033;-67
2021/04/08 15:58:48;;;;;;;7.00;2.63;;;;;;;;;;5008191;28;20476;-70
2021/04/08 16:01:15;;;;;;;6.50;2.97;;;;;;;;;;5010705;28;20477;-66
2021/04/08 16:03:41;;;;;;;13.85;6.95;;;;;;;;;;5010178;28;20026;-64
2021/04/08 16:06:09;;;;;;;14.18;6.63;;;;;;;;;;5010541;28;20065;-63
2021/04/08 16:08:35;;;;;;;10.15;4.97;;;;;;;;;;4994688;28;20615;-68
2021/04/08 16:11:04;;;;;;;8.27;3.55;;;;;;;;;;5006259;28;20119;-65
2021/04/08 16:13:30;;;;;;;9.52;3.17;;;;;;;;;;5009989;28;20421;-68
2021/04/08 16:15:56;;;;;;;5.30;2.75;;;;;;;;;;5009922;28;20034;-67
2021/04/08 16:18:23;;;;;;;12.32;4.32;;;;;;;;;;5010703;28;20026;-60
2021/04/08 16:20:49;;;;;;;10.70;4.75;;;;;;;;;;5010497;28;20508;-61
2021/04/08 16:23:15;;;;;;;8.00;4.32;;;;;;;;;;5010177;28;20438;-64
2021/04/08 16:25:42;;;;;;;11.77;5.18;;;;;;;;;;5009835;28;20378;-61
2021/04/08 16:28:09;;;;;;;10.00;5.82;;;;;;;;;;5010153;28;20030;-62
2021/04/08 16:30:35;;;;;;;11.35;4.70;;;;;;;;;;5010265;28;20034;-65
2021/04/08 16:33:01;;;;;;;12.38;5.07;;;;;;;;;;5010540;28;20084;-60
2021/04/08 16:35:27;;;;;;;8.05;4.90;;;;;;;;;;5010323;28;20034;-65
2021/04/08 16:37:55;;;;;;;18.70;7.47;;;;;;;;;;5010179;28;20018;-63
2021/04/08 16:40:21;;;;;;;13.43;5.97;;;;;;;;;;5010017;28;20070;-59
2021/04/08 16:42:47;;;;;;;12.63;5.75;;;;;;;;;;5010000;28;20029;-66
2021/04/08 16:45:13;;;;;;;12.38;3.78;;;;;;;;;;4993622;28;20037;-61
2021/04/08 16:47:39;;;;;;;8.43;3.30;;;;;;;;;;4986296;28;20054;-61
2021/04/08 16:50:10;;;;;;;8.02;3.55;;;;;;;;;;4990150;28;20105;-63
2021/04/08 16:52:37;;;;;;;7.25;3.88;;;;;;;;;;4990317;28;20045;-63
2021/04/08 16:55:04;;;;;;;9.98;4.40;;;;;;;;;;4986675;28;20066;-59
2021/04/08 16:57:30;;;;;;;11.45;5.30;;;;;;;;;;4976430;28;20109;-59
2021/04/08 16:59:56;;;;;;;10.77;5.60;;;;;;;;;;4989224;28;20026;-64
2021/04/08 17:02:22;;;;;;;13.63;6.05;;;;;;;;;;4988695;28;20028;-69
2021/04/08 17:04:48;;;;;;;10.40;5.53;;;;;;;;;;4987095;28;20066;-63
2021/04/08 17:07:14;;;;;;;12.80;5.13;;;;;;;;;;4973751;28;20033;-62
2021/04/08 17:09:41;;;;;;;13.70;5.13;;;;;;;;;;4988179;28;20058;-66
2021/04/08 17:12:07;;;;;;;9.63;4.53;;;;;;;;;;4989028;28;20026;-63
2021/04/08 17:14:33;;;;;;;13.68;5.30;;;;;;;;;;4987013;28;20121;-65
2021/04/08 17:16:59;;;;;;;10.45;5.60;;;;;;;;;;4988605;28;21594;-67
2021/04/08 17:19:25;;;;;;;11.43;5.00;;;;;;;;;;4988401;28;20452;-61
2021/04/08 17:21:51;;;;;;;12.88;5.53;;;;;;;;;;4989087;28;20152;-64
2021/04/08 17:24:17;;;;;;;16.73;6.63;;;;;;;;;;4983668;28;20061;-60
2021/04/08 17:26:43;;;;;;;12.18;5.72;;;;;;;;;;4986726;28;20488;-60
2021/04/08 17:29:09;;;;;;;11.48;5.57;;;;;;;;;;4990710;28;20101;-63
2021/04/08 17:31:36;;;;;;;14.82;5.90;;;;;;;;;;4991554;28;20038;-59
2021/04/08 17:34:02;;;;;;;11.95;5.82;;;;;;;;;;4978205;28;20418;-63
2021/04/08 17:36:29;;;;;;;16.05;6.50;;;;;;;;;;4975745;28;20027;-64
2021/04/08 17:38:56;;;;;;;11.93;5.53;;;;;;;;;;4981956;28;20022;-59
2021/04/08 17:41:22;;;;;;;12.40;6.00;;;;;;;;;;4984709;28;20042;-67
2021/04/08 17:43:48;;;;;;;18.23;6.60;;;;;;;;;;4991023;28;20091;-73
2021/04/08 17:46:14;;;;;;;17.55;7.28;;;;;;;;;;4995803;28;20561;-66
2021/04/08 17:48:40;;;;;;;18.15;7.70;;;;;;;;;;4987722;28;20026;-66
2021/04/08 17:51:06;;;;;;;17.02;7.40;;;;;;;;;;4989841;28;20070;-65
2021/04/08 17:53:32;;;;;;;19.45;7.63;;;;;;;;;;4984327;28;20027;-65
2021/04/08 17:55:59;;;;;;;16.33;7.80;;;;;;;;;;4985930;28;20026;-66
2021/04/08 17:58:25;;;;;;;17.80;7.38;;;;;;;;;;4985766;28;20173;-64
2021/04/08 18:00:51;;;;;;;16.23;6.78;;;;;;;;;;4985647;28;20046;-64
2021/04/08 18:03:17;;;;;;;16.75;7.50;;;;;;;;;;4986120;28;20089;-65
2021/04/08 18:05:43;;;;;;;17.05;7.18;;;;;;;;;;4992003;28;20053;-62
2021/04/08 18:08:09;;;;;;;11.07;5.75;;;;;;;;;;4986903;28;20453;-65
2021/04/08 18:10:35;;;;;;;15.25;5.68;;;;;;;;;;4984693;28;20547;-67
2021/04/08 18:13:01;;;;;;;13.63;5.55;;;;;;;;;;4986957;28;20031;-67
2021/04/08 18:15:27;;;;;;;16.25;5.57;;;;;;;;;;4987543;28;20110;-68
2021/04/08 18:17:54;;;;;;;11.68;4.68;;;;;;;;;;4986999;28;20035;-65
2021/04/08 18:20:20;;;;;;;17.60;9.52;;;;;;;;;;4975313;28;20030;-65
2021/04/08 18:22:46;;;;;;;28.92;13.10;;;;;;;;;;4987982;28;20113;-68
2021/04/08 18:25:13;;;;;;;27.13;12.80;;;;;;;;;;4977566;28;20122;-64
2021/04/08 18:27:39;;;;;;;23.30;11.05;;;;;;;;;;4984816;28;20085;-64
2021/04/08 18:30:06;;;;;;;21.40;9.55;;;;;;;;;;4980013;28;20039;-68
2021/04/08 18:32:33;;;;;;;37.92;15.30;;;;;;;;;;4989490;28;20041;-69
2021/04/08 18:34:59;;;;;;;27.40;12.55;;;;;;;;;;4977533;28;20039;-65
2021/04/08 18:37:25;;;;;;;21.20;9.65;;;;;;;;;;4977889;28;20027;-63
2021/04/08 18:39:52;;;;;;;117.57;46.42;;;;;;;;;;4988811;28;20031;-68
2021/04/08 18:42:18;;;;;;;97.90;39.58;;;;;;;;;;4991420;28;20058;-65
2021/04/08 18:44:44;;;;;;;46.92;22.90;;;;;;;;;;4975994;28;20042;-68
2021/04/08 18:47:10;;;;;;;54.92;25.67;;;;;;;;;;4992207;28;20034;-68
2021/04/08 18:49:37;;;;;;;62.92;28.67;;;;;;;;;;4992090;28;20053;-68
2021/04/08 18:52:04;;;;;;;63.28;28.13;;;;;;;;;;4991271;28;20038;-68
2021/04/08 18:54:30;;;;;;;83.00;35.90;;;;;;;;;;4991294;28;20030;-67
2021/04/08 18:56:57;;;;;;;56.08;26.13;;;;;;;;;;4997177;28;20478;-61
2021/04/08 18:59:23;;;;;;;20.92;9.85;;;;;;;;;;4991768;28;20379;-64
2021/04/08 19:01:54;;;;;;;34.42;17.75;;;;;;;;;;4991991;28;20377;-65
2021/04/08 19:04:20;;;;;;;29.83;15.07;;;;;;;;;;4974840;28;20050;-66
2021/04/08 19:06:46;;;;;;;49.13;25.00;;;;;;;;;;4982415;28;20117;-65
2021/04/08 19:09:12;;;;;;;33.70;18.05;;;;;;;;;;4986642;28;20917;-64
2021/04/08 19:11:38;;;;;;;32.03;17.70;;;;;;;;;;4981153;28;20058;-67
2021/04/08 19:14:04;;;;;;;45.20;23.92;;;;;;;;;;4981741;28;20049;-63
2021/04/08 19:16:30;;;;;;;23.55;12.43;;;;;;;;;;4968526;28;20034;-63
2021/04/08 19:18:56;;;;;;;24.20;11.15;;;;;;;;;;4968268;28;20026;-65
2021/04/08 19:21:22;;;;;;;27.20;12.65;;;;;;;;;;4975502;28;20371;-66
2021/04/08 19:23:48;;;;;;;36.70;18.17;;;;;;;;;;4978780;28;20029;-65
2021/04/08 19:26:14;;;;;;;45.80;21.85;;;;;;;;;;4981172;28;20485;-62
2021/04/08 19:28:43;;;;;;;47.10;20.17;;;;;;;;;;4980128;28;20031;-64
2021/04/08 19:31:09;;;;;;;40.38;18.98;;;;;;;;;;4975770;28;20093;-67
2021/04/08 19:33:35;;;;;;;38.45;20.08;;;;;;;;;;4973139;28;20026;-63
2021/04/08 19:36:02;;;;;;;24.60;10.77;;;;;;;;;;4978366;28;20030;-65
2021/04/08 19:38:28;;;;;;;45.17;20.20;;;;;;;;;;4980922;28;20482;-64
2021/04/08 19:40:54;;;;;;;41.35;18.70;;;;;;;;;;4978681;28;20047;-64
2021/04/08 19:43:20;;;;;;;44.58;22.45;;;;;;;;;;4979580;28;20415;-68
2021/04/08 19:45:46;;;;;;;54.65;27.25;;;;;;;;;;4960350;28;20053;-61
2021/04/08 19:48:13;;;;;;;50.30;23.90;;;;;;;;;;4977771;28;20026;-66
2021/04/08 19:50:39;;;;;;;28.98;13.43;;;;;;;;;;4979112;28;20042;-67
2021/04/08 19:53:05;;;;;;;33.20;14.50;;;;;;;;;;4977774;28;20144;-65
2021/04/08 19:55:31;;;;;;;38.30;17.83;;;;;;;;;;4980163;28;20027;-64
2021/04/08 19:57:58;;;;;;;36.78;17.67;;;;;;;;;;4979502;28;20036;-62
2021/04/08 20:00:24;;;;;;;43.42;20.80;;;;;;;;;;4964302;28;20041;-66
2021/04/08 20:02:51;;;;;;;27.40;11.60;;;;;;;;;;4977299;28;20085;-65
2021/04/08 20:05:17;;;;;;;38.15;17.52;;;;;;;;;;4981535;28;20073;-64
2021/04/08 20:07:45;;;;;;;24.20;11.68;;;;;;;;;;4982803;28;20062;-65
2021/04/08 20:10:11;;;;;;;20.65;9.63;;;;;;;;;;4982874;28;20050;-65
2021/04/08 20:12:38;;;;;;;32.72;15.02;;;;;;;;;;4982343;28;20011;-64
2021/04/08 20:15:04;;;;;;;41.03;17.38;;;;;;;;;;4980008;28;20035;-61
2021/04/08 20:17:31;;;;;;;26.00;11.48;;;;;;;;;;4978327;28;20034;-63
2021/04/08 20:19:57;;;;;;;29.92;14.00;;;;;;;;;;4980730;28;20026;-62
2021/04/08 20:22:23;;;;;;;31.55;15.07;;;;;;;;;;4978729;28;20031;-61
2021/04/08 20:24:49;;;;;;;35.20;15.13;;;;;;;;;;4983215;28;20027;-62
2021/04/08 20:27:18;;;;;;;24.60;11.40;;;;;;;;;;4980575;28;20022;-59
2021/04/08 20:29:44;;;;;;;33.72;16.05;;;;;;;;;;4984453;28;20036;-70